This is the latest recevied weather packets stored in our database for station/object LZ2SLL-13. If no packets are shown the sender has not sent any weather packets the latest 10 day(s).
| Time | Temp. | Humidity | Pressure | Rain* | Wind** | Luminosity | Snow |
|---|---|---|---|---|---|---|---|
| 1778253575 | 15.56° C | 81% | - | 0 mm | - | 176 W/m² | - |
| 1778253274 | 16.11° C | 78% | - | 0 mm | - | 193 W/m² | - |
| 1778252974 | 16.67° C | 77% | - | 0 mm | - | 203 W/m² | - |
| 1778252673 | 16.67° C | 75% | - | 0 mm | - | 205 W/m² | - |
| 1778252372 | 16.11° C | 78% | - | 0 mm | - | 210 W/m² | - |
| 1778251470 | 15.56° C | 78% | - | 0 mm | - | 277 W/m² | - |
| 1778251169 | 15.56° C | 80% | - | 0 mm | - | 304 W/m² | - |
| 1778250869 | 20° C | 63% | - | 0 mm | - | 853 W/m² | - |
| 1778250568 | 20° C | 63% | - | 0 mm | - | 853 W/m² | - |
| 1778250267 | 20° C | 63% | - | 0 mm | - | 853 W/m² | - |
| 1778249966 | 20° C | 63% | - | 0 mm | - | 853 W/m² | - |
| 1778249666 | 20° C | 63% | - | 0 mm | - | 853 W/m² | - |
| 1778249365 | 20° C | 63% | - | 0 mm | - | 853 W/m² | - |
| 1778249064 | 20° C | 63% | - | 0 mm | - | 853 W/m² | - |
| 1778248764 | 20° C | 63% | - | 0 mm | - | 853 W/m² | - |
| 1778248463 | 20° C | 63% | - | 0 mm | - | 853 W/m² | - |
| 1778247561 | 20° C | 63% | - | 0 mm | - | 853 W/m² | - |
| 1778247260 | 20° C | 63% | - | 0 mm | - | 853 W/m² | - |
| 1778246959 | 20° C | 63% | - | 0 mm | - | 853 W/m² | - |
| 1778246658 | 20° C | 63% | - | 0 mm | - | 853 W/m² | - |
| 1778246358 | 20° C | 63% | - | 0 mm | - | 853 W/m² | - |
| 1778246057 | 20° C | 63% | - | 0 mm | - | 853 W/m² | - |
| 1778245756 | 20° C | 63% | - | 0 mm | - | 853 W/m² | - |
| 1778245456 | 20° C | 63% | - | 0 mm | - | 853 W/m² | - |
| 1778245155 | 20° C | 63% | - | 0 mm | - | 853 W/m² | - |
* Rain latest hour (hover to see other rain measurements)
** Current wind speed in m/s (hover to see current wind gust speed)